Halkirk, Canada
Current Conditions -  °F | °C
As of 10:00 AM on Tuesday 21 Oct 2014 (Local Time) from CYQF Reporting Station
Broken Clouds Broken Clouds  
Wind Chill: 41°   Ceiling: 22000
Heat Index: 45°   Visibility: 15mi
Dew Point: 37°   Wind: 7mph
Humidity: 76%   Direction: 290°WNW
Pressure: 29.65"   Gusts: NA
Location:  52.28°N, 112.15°W
Report Text: CYQF 211600Z 29006KT 15SM SCT120 BKN220 07/03 A2965 RMK AC4CI3 SLP055 DENSITY ALT 3000FT
Loading
Personal Weather Stations






























Interactive Weather Map
Tropical Storm Tracking
New forecast layout! Learn more

10-Day Weather Forecast

Advertisements
Track Severe Weather on mobile